createdAt,value
2019-05-09T15:02:57.995Z,52.65
2019-05-09T15:03:58.336Z,51.36
2019-05-09T15:04:55.770Z,53.16
2019-05-09T15:05:57.361Z,54.20
2019-05-09T15:06:57.865Z,52.46
2019-05-09T15:07:58.905Z,53.53
2019-05-09T15:08:57.935Z,52.55
2019-05-09T15:09:56.903Z,52.19
2019-05-09T15:10:58.049Z,52.57
2019-05-09T15:11:58.278Z,51.36
2019-05-09T15:12:55.730Z,51.63
2019-05-09T15:13:55.697Z,52.26
2019-05-09T15:14:57.818Z,52.79
2019-05-09T15:15:57.900Z,49.84
2019-05-09T15:16:57.497Z,50.70
2019-05-09T15:17:58.236Z,52.70
2019-05-09T15:18:58.189Z,52.07
2019-05-09T15:20:00.225Z,52.44
2019-05-09T15:20:57.981Z,49.88
2019-05-09T15:21:57.814Z,50.15
2019-05-09T15:22:55.760Z,51.04
2019-05-09T15:23:55.741Z,52.67
2019-05-09T15:24:55.726Z,51.76
2019-05-09T15:25:58.037Z,50.15
2019-05-09T15:26:57.821Z,51.78
2019-05-09T15:27:58.031Z,52.81
2019-05-09T15:28:57.829Z,51.40
2019-05-09T15:29:58.288Z,50.26
2019-05-09T15:30:55.749Z,49.84
2019-05-09T15:32:03.329Z,52.32
2019-05-09T15:32:55.785Z,52.10
2019-05-09T15:33:55.773Z,51.49
2019-05-09T15:34:57.707Z,51.81
2019-05-09T15:35:55.748Z,51.47
2019-05-09T15:36:58.031Z,49.87
2019-05-09T15:37:55.766Z,49.82
2019-05-09T15:38:55.798Z,50.55
2019-05-09T15:39:55.734Z,50.76
2019-05-09T15:40:55.761Z,49.48
2019-05-09T15:41:57.798Z,50.76
2019-05-09T15:42:55.757Z,48.64
2019-05-09T15:43:57.890Z,50.28
2019-05-09T15:44:58.782Z,49.87
2019-05-09T15:45:57.958Z,47.42
2019-05-09T15:46:55.756Z,46.86
2019-05-09T15:47:58.173Z,47.86
2019-05-09T15:48:58.132Z,46.61
2019-05-09T15:49:57.955Z,47.13
2019-05-09T15:50:58.111Z,48.76
2019-05-09T15:51:58.326Z,49.02
2019-05-09T15:52:57.997Z,49.02
2019-05-09T15:53:57.736Z,47.60
2019-05-09T15:54:57.917Z,48.09
2019-05-09T15:55:55.767Z,49.21
2019-05-09T15:56:57.851Z,50.10
2019-05-09T15:57:57.690Z,50.57
2019-05-09T15:58:57.928Z,51.33
2019-05-09T15:59:58.619Z,50.44
2019-05-09T16:00:55.772Z,50.54
2019-05-09T16:01:58.183Z,50.21
2019-05-09T16:02:58.760Z,51.19
2019-05-09T16:03:55.762Z,52.45
2019-05-09T16:04:58.237Z,51.61
2019-05-09T16:05:58.249Z,51.18
2019-05-09T16:06:55.802Z,50.79
2019-05-09T16:07:55.787Z,50.70
2019-05-09T16:08:58.400Z,51.41
2019-05-09T16:09:57.822Z,50.58
2019-05-09T16:10:58.010Z,51.10
2019-05-09T16:11:55.775Z,50.13
2019-05-09T16:12:55.809Z,51.08
2019-05-09T16:13:55.792Z,53.72
2019-05-09T16:14:55.849Z,53.03
2019-05-09T16:15:57.548Z,50.20
2019-05-09T16:16:55.792Z,49.31
2019-05-09T16:17:55.826Z,50.27
2019-05-09T16:18:58.073Z,48.94
2019-05-09T16:19:57.723Z,49.00
2019-05-09T16:20:57.947Z,49.50
2019-05-09T16:21:55.820Z,49.11
2019-05-09T16:22:57.274Z,49.46
2019-05-09T16:23:55.799Z,49.17
2019-05-09T16:24:55.826Z,48.88
2019-05-09T16:25:58.365Z,49.21
2019-05-09T16:26:57.826Z,50.00
2019-05-09T16:27:58.569Z,48.69
2019-05-09T16:28:58.092Z,47.10
2019-05-09T16:29:57.988Z,48.34
2019-05-09T16:30:55.829Z,50.02
2019-05-09T16:31:57.917Z,48.83
2019-05-09T16:32:55.852Z,48.76
2019-05-09T16:33:58.046Z,49.35
2019-05-09T16:34:55.818Z,49.28
2019-05-09T16:35:55.869Z,50.61
2019-05-09T16:36:58.227Z,50.76
2019-05-09T16:38:01.442Z,50.44
2019-05-09T16:38:58.192Z,51.39
2019-05-09T16:39:57.722Z,51.65
2019-05-09T16:40:58.134Z,51.67
2019-05-09T16:41:59.011Z,52.68
2019-05-09T16:42:58.116Z,53.70
2019-05-09T16:43:58.153Z,54.34
2019-05-09T16:44:59.155Z,54.97
2019-05-09T16:45:57.994Z,53.62
2019-05-09T16:46:57.629Z,54.81
2019-05-09T16:47:57.552Z,53.75
2019-05-09T16:48:57.964Z,54.25
2019-05-09T16:49:57.907Z,55.81
2019-05-09T16:51:01.305Z,55.23
2019-05-09T16:51:58.058Z,53.57
2019-05-09T16:52:58.427Z,54.35
2019-05-09T16:53:58.252Z,53.74
2019-05-09T16:54:58.030Z,55.12
2019-05-09T16:55:57.821Z,54.69
2019-05-09T16:56:57.373Z,56.73
2019-05-09T16:57:57.369Z,57.88
2019-05-09T16:58:57.807Z,57.76
2019-05-09T16:59:55.879Z,57.87
2019-05-09T17:00:55.880Z,57.51
2019-05-09T17:01:57.866Z,57.15
2019-05-09T17:02:57.453Z,56.71
2019-05-09T17:03:57.529Z,57.13
2019-05-09T17:04:57.740Z,58.80
2019-05-09T17:05:58.077Z,58.46
2019-05-09T17:06:57.701Z,59.45
2019-05-09T17:07:55.865Z,57.96
2019-05-09T17:08:58.201Z,57.15
2019-05-09T17:09:57.751Z,57.70
2019-05-09T17:10:58.410Z,60.08
2019-05-09T17:11:57.718Z,59.12
2019-05-09T17:12:58.088Z,59.06
2019-05-09T17:13:58.172Z,58.52
2019-05-09T17:14:59.488Z,58.40
2019-05-09T17:15:55.914Z,58.43
2019-05-09T17:16:59.700Z,58.87
2019-05-09T17:17:55.911Z,58.85
2019-05-09T17:18:58.001Z,60.39
2019-05-09T17:19:57.306Z,60.16
2019-05-09T17:20:58.637Z,60.34
2019-05-09T17:21:55.873Z,61.49
2019-05-09T17:23:10.005Z,61.24
2019-05-09T17:23:58.209Z,61.45
2019-05-09T17:24:57.430Z,61.77
2019-05-09T17:25:57.880Z,61.96
2019-05-09T17:26:57.968Z,61.81
2019-05-09T17:27:59.024Z,62.69
2019-05-09T17:28:55.870Z,63.86
2019-05-09T17:29:55.908Z,63.61
2019-05-09T17:30:57.943Z,63.39
2019-05-09T17:31:58.203Z,63.62
2019-05-09T17:32:58.127Z,63.75
2019-05-09T17:33:57.912Z,65.12
2019-05-09T17:34:58.168Z,64.33
2019-05-09T17:35:57.760Z,64.49
2019-05-09T17:36:55.921Z,64.51
2019-05-09T17:37:55.907Z,64.84
2019-05-09T17:38:55.919Z,65.38
2019-05-09T17:39:55.900Z,65.96
2019-05-09T17:40:57.738Z,66.71
2019-05-09T17:41:58.063Z,66.04
2019-05-09T17:42:55.962Z,66.50
2019-05-09T17:43:58.069Z,67.04
2019-05-09T17:44:57.899Z,67.23
2019-05-09T17:45:58.098Z,67.16
2019-05-09T17:46:57.954Z,67.05
2019-05-09T17:47:57.806Z,67.15
2019-05-09T17:48:58.121Z,67.06
2019-05-09T17:49:57.410Z,67.52
2019-05-09T17:50:57.925Z,68.10
2019-05-09T17:51:58.206Z,67.77
2019-05-09T17:52:57.821Z,67.85
2019-05-09T17:53:58.182Z,67.80
2019-05-09T17:54:55.965Z,67.83
2019-05-09T17:55:58.364Z,67.84
2019-05-09T17:56:57.303Z,68.72
2019-05-09T17:57:58.499Z,68.79
2019-05-09T17:58:57.899Z,70.24
2019-05-09T17:59:58.320Z,69.86
2019-05-09T18:00:57.696Z,70.06
2019-05-09T18:01:57.799Z,70.49
2019-05-09T18:02:57.865Z,71.28
2019-05-09T18:03:55.974Z,71.45
2019-05-09T18:04:58.124Z,71.41
2019-05-09T18:05:57.688Z,71.62
2019-05-09T18:06:58.220Z,71.76
2019-05-09T18:07:57.920Z,71.40
2019-05-09T18:08:57.607Z,72.58
2019-05-09T18:09:58.082Z,72.68
2019-05-09T18:10:58.349Z,72.72
2019-05-09T18:11:57.841Z,73.02
2019-05-09T18:12:55.985Z,72.84
2019-05-09T18:13:55.953Z,72.67
2019-05-09T18:14:56.033Z,72.93
2019-05-09T18:15:56.017Z,73.74
2019-05-09T18:16:58.180Z,73.68
2019-05-09T18:17:58.458Z,73.21
2019-05-09T18:18:58.535Z,73.11
2019-05-09T18:19:58.285Z,72.41
2019-05-09T18:20:58.032Z,72.52
2019-05-09T18:21:57.703Z,71.88
2019-05-09T18:22:58.447Z,71.14
2019-05-09T18:23:58.509Z,71.74
2019-05-09T18:24:57.712Z,71.61
2019-05-09T18:25:58.315Z,72.01
2019-05-09T18:26:58.219Z,72.22
2019-05-09T18:27:57.464Z,72.22
2019-05-09T18:28:59.425Z,72.02
2019-05-09T18:29:58.115Z,72.07
2019-05-09T18:30:58.355Z,72.44
2019-05-09T18:31:58.229Z,72.80
2019-05-09T18:32:57.882Z,72.60
2019-05-09T18:33:58.121Z,72.76
2019-05-09T18:34:58.399Z,73.14
2019-05-09T18:35:57.627Z,72.97
2019-05-09T18:36:58.605Z,72.88
2019-05-09T18:37:56.062Z,72.81
2019-05-09T18:38:58.249Z,72.95
2019-05-09T18:39:58.089Z,73.22
2019-05-09T18:40:57.939Z,73.26
2019-05-09T18:41:57.735Z,73.23
2019-05-09T18:42:58.231Z,73.65
2019-05-09T18:43:57.426Z,74.15
2019-05-09T18:44:56.078Z,74.54
2019-05-09T18:45:57.729Z,74.82
2019-05-09T18:46:57.670Z,74.46
2019-05-09T18:47:57.992Z,74.58
2019-05-09T18:48:56.115Z,75.30
2019-05-09T18:49:56.086Z,75.37
2019-05-09T18:50:56.137Z,75.46
2019-05-09T18:52:03.842Z,75.83
2019-05-09T18:52:56.137Z,75.59
2019-05-09T18:53:56.174Z,76.02
2019-05-09T18:54:56.129Z,76.22
2019-05-09T18:55:56.109Z,76.56
2019-05-09T18:56:56.175Z,76.71
2019-05-09T18:57:56.147Z,76.51
2019-05-09T18:58:56.124Z,76.46
2019-05-09T18:59:56.182Z,77.33
2019-05-09T19:00:56.155Z,77.66
2019-05-09T19:01:56.141Z,77.57
2019-05-09T19:02:56.181Z,77.56
2019-05-09T19:03:56.159Z,78.13
2019-05-09T19:04:56.140Z,77.93
2019-05-09T19:05:56.205Z,78.13
2019-05-09T19:06:56.149Z,78.15
2019-05-09T19:07:56.137Z,78.54
2019-05-09T19:08:56.165Z,78.65
2019-05-09T19:09:56.165Z,79.53
2019-05-09T19:10:56.143Z,79.32
2019-05-09T19:11:56.192Z,79.75
2019-05-09T19:12:56.135Z,79.87
2019-05-09T19:13:56.168Z,79.75
2019-05-09T19:14:56.177Z,79.99
2019-05-09T19:15:58.448Z,79.60
2019-05-09T19:16:56.134Z,79.51
2019-05-09T19:17:56.198Z,79.45
2019-05-09T19:18:56.154Z,78.86
2019-05-09T19:19:56.134Z,78.63
2019-05-09T19:20:56.169Z,78.82
2019-05-09T19:21:56.164Z,78.59
2019-05-09T19:22:56.145Z,78.62
2019-05-09T19:23:56.204Z,78.65
2019-05-09T19:24:56.163Z,78.55
2019-05-09T19:25:56.173Z,78.95
2019-05-09T19:26:56.221Z,78.66
2019-05-09T19:27:56.230Z,79.21
2019-05-09T19:28:56.239Z,79.12
2019-05-09T19:29:56.278Z,79.08
2019-05-09T19:30:56.251Z,79.18
2019-05-09T19:31:56.234Z,79.55
2019-05-09T19:32:56.296Z,79.71
2019-05-09T19:33:56.317Z,80.04
2019-05-09T19:34:56.338Z,80.39
2019-05-09T19:35:56.339Z,80.76
2019-05-09T19:36:56.326Z,80.68
2019-05-09T19:37:56.328Z,81.16
2019-05-09T19:38:56.358Z,80.95
2019-05-09T19:39:56.350Z,81.23
2019-05-09T19:40:56.387Z,81.24
2019-05-09T19:41:56.423Z,81.53
2019-05-09T19:42:56.399Z,81.30
2019-05-09T19:43:56.374Z,81.67
2019-05-09T19:44:56.419Z,81.86
2019-05-09T19:45:56.409Z,81.98
2019-05-09T19:46:56.447Z,82.13
2019-05-09T19:47:56.487Z,81.91
2019-05-09T19:48:56.458Z,81.82
2019-05-09T19:49:56.447Z,82.21
2019-05-09T19:50:56.544Z,81.90
2019-05-09T19:51:56.487Z,82.06
2019-05-09T19:52:56.515Z,82.24
2019-05-09T19:53:56.558Z,81.93
2019-05-09T19:54:56.514Z,82.09
2019-05-09T19:55:56.520Z,82.01
2019-05-09T19:56:56.559Z,82.17
2019-05-09T19:57:56.568Z,82.27
2019-05-09T19:58:56.566Z,81.65
2019-05-09T19:59:56.618Z,81.88
2019-05-09T20:00:56.602Z,81.78
2019-05-09T20:01:56.626Z,81.74
2019-05-09T20:02:56.659Z,82.08
2019-05-09T20:03:56.641Z,81.79
2019-05-09T20:04:56.671Z,81.87
2019-05-09T20:05:56.673Z,81.88
2019-05-09T20:06:56.654Z,81.74
2019-05-09T20:07:56.710Z,81.71
2019-05-09T20:08:56.700Z,81.53
2019-05-09T20:09:56.716Z,81.32
2019-05-09T20:10:56.766Z,81.34
2019-05-09T20:11:56.771Z,81.06
2019-05-09T20:12:56.713Z,81.34
2019-05-09T20:13:56.766Z,81.00
2019-05-09T20:14:56.820Z,81.26
2019-05-09T20:15:56.749Z,81.04
2019-05-09T20:16:56.769Z,81.04
2019-05-09T20:17:56.845Z,81.00
2019-05-09T20:18:56.798Z,80.78
2019-05-09T20:19:56.782Z,80.73
2019-05-09T20:20:56.860Z,80.50
2019-05-09T20:21:56.849Z,80.52
2019-05-09T20:22:56.874Z,80.85
2019-05-09T20:23:57.985Z,80.89
2019-05-09T20:24:56.894Z,80.86
2019-05-09T20:25:56.890Z,80.72
2019-05-09T20:26:56.914Z,80.82
2019-05-09T20:27:56.919Z,81.01
2019-05-09T20:28:56.945Z,80.68
2019-05-09T20:29:56.942Z,81.15
2019-05-09T20:30:56.953Z,81.14
2019-05-09T20:31:56.991Z,81.00
2019-05-09T20:32:56.990Z,80.89
2019-05-09T20:33:56.994Z,81.28
2019-05-09T20:34:56.983Z,81.32
2019-05-09T20:35:57.036Z,81.37
2019-05-09T20:36:57.007Z,81.67
2019-05-09T20:37:57.039Z,81.82
2019-05-09T20:38:57.048Z,81.38
2019-05-09T20:39:57.068Z,81.58
2019-05-09T20:40:57.091Z,81.57
2019-05-09T20:41:57.088Z,81.77
2019-05-09T20:42:57.070Z,81.76
2019-05-09T20:43:57.131Z,81.66
2019-05-09T20:44:57.117Z,81.92
2019-05-09T20:45:57.139Z,81.90
2019-05-09T20:46:57.163Z,81.92
2019-05-09T20:47:57.175Z,82.04
2019-05-09T20:48:57.174Z,82.06
2019-05-09T20:49:57.195Z,82.09
2019-05-09T20:50:57.164Z,81.95
2019-05-09T20:51:57.247Z,82.27
2019-05-09T20:53:08.976Z,82.07
2019-05-09T20:53:57.240Z,82.47
2019-05-09T20:54:57.220Z,82.25
2019-05-09T20:55:57.238Z,82.11
2019-05-09T20:56:57.236Z,82.12
2019-05-09T20:57:57.226Z,82.29
2019-05-09T20:58:57.241Z,82.22
2019-05-09T20:59:57.244Z,82.27
2019-05-09T21:00:57.227Z,82.23
2019-05-09T21:01:57.226Z,82.19
2019-05-09T21:02:57.202Z,82.47
2019-05-09T21:04:00.047Z,82.36
2019-05-09T21:04:57.244Z,82.61
2019-05-09T21:05:57.236Z,82.65
2019-05-09T21:06:57.248Z,82.76
2019-05-09T21:07:57.200Z,82.82
2019-05-09T21:08:57.227Z,82.93
2019-05-09T21:09:57.259Z,82.90
2019-05-09T21:10:57.276Z,83.07
2019-05-09T21:11:57.235Z,82.97
2019-05-09T21:12:57.241Z,83.03
2019-05-09T21:13:57.198Z,83.22
2019-05-09T21:14:57.235Z,83.28
2019-05-09T21:15:57.241Z,83.13
2019-05-09T21:16:57.246Z,83.15
2019-05-09T21:17:57.245Z,83.18
2019-05-09T21:18:57.222Z,83.06
2019-05-09T21:19:57.209Z,83.00
2019-05-09T21:20:57.250Z,83.04
2019-05-09T21:21:57.273Z,83.05
2019-05-09T21:22:57.302Z,82.91
2019-05-09T21:23:57.229Z,83.11
2019-05-09T21:24:57.254Z,82.90
2019-05-09T21:25:57.260Z,83.05
2019-05-09T21:26:57.268Z,82.84
2019-05-09T21:27:57.304Z,82.99
2019-05-09T21:28:57.238Z,83.01
2019-05-09T21:29:57.268Z,82.98
2019-05-09T21:30:57.225Z,83.16
2019-05-09T21:31:57.206Z,83.15
2019-05-09T21:32:57.247Z,83.00
2019-05-09T21:33:57.257Z,83.16
2019-05-09T21:34:57.241Z,83.12
2019-05-09T21:35:57.248Z,83.32
2019-05-09T21:36:57.263Z,83.19
2019-05-09T21:37:57.290Z,83.35
2019-05-09T21:38:57.267Z,83.11
2019-05-09T21:39:57.271Z,83.48
2019-05-09T21:40:57.283Z,83.36
2019-05-09T21:41:57.265Z,83.38
2019-05-09T21:42:57.245Z,83.35
2019-05-09T21:43:57.253Z,83.33
2019-05-09T21:44:57.269Z,83.30
2019-05-09T21:45:57.251Z,83.41
2019-05-09T21:46:57.242Z,83.45
2019-05-09T21:47:57.283Z,83.45
2019-05-09T21:48:57.282Z,83.44
2019-05-09T21:49:57.296Z,83.57
2019-05-09T21:50:57.262Z,83.66
2019-05-09T21:51:57.255Z,83.67
2019-05-09T21:52:57.254Z,83.72
2019-05-09T21:53:57.269Z,83.86
2019-05-09T21:54:57.276Z,83.84
2019-05-09T21:55:57.275Z,83.83
2019-05-09T21:56:57.320Z,83.76
2019-05-09T21:57:57.250Z,83.67
2019-05-09T21:58:57.248Z,83.84
2019-05-09T21:59:57.284Z,83.75
2019-05-09T22:00:57.287Z,83.70
2019-05-09T22:01:57.310Z,83.85
2019-05-09T22:02:57.297Z,83.97
2019-05-09T22:03:57.282Z,83.99
2019-05-09T22:04:57.273Z,83.96
2019-05-09T22:05:57.282Z,83.98
2019-05-09T22:06:57.267Z,84.15
2019-05-09T22:07:57.272Z,84.06
2019-05-09T22:08:57.305Z,83.97
2019-05-09T22:09:57.267Z,84.06
2019-05-09T22:10:57.294Z,84.00
2019-05-09T22:11:57.286Z,84.05
2019-05-09T22:12:57.279Z,84.04
2019-05-09T22:13:57.294Z,83.96
2019-05-09T22:14:57.287Z,84.03
2019-05-09T22:15:57.283Z,83.87
2019-05-09T22:16:57.272Z,84.06
2019-05-09T22:17:57.290Z,83.94
2019-05-09T22:18:57.280Z,84.05
2019-05-09T22:19:57.253Z,84.04
2019-05-09T22:20:57.278Z,84.00
2019-05-09T22:21:57.269Z,84.11
2019-05-09T22:22:57.268Z,84.02
2019-05-09T22:23:57.389Z,84.03
2019-05-09T22:24:57.268Z,83.96
2019-05-09T22:25:57.251Z,83.95
2019-05-09T22:26:57.286Z,84.00
2019-05-09T22:27:57.290Z,83.92
2019-05-09T22:28:57.330Z,83.87
2019-05-09T22:29:57.281Z,83.89
2019-05-09T22:30:57.301Z,83.94
2019-05-09T22:31:57.309Z,83.89
2019-05-09T22:32:57.273Z,83.86
2019-05-09T22:33:57.290Z,83.87
2019-05-09T22:34:57.342Z,83.84
2019-05-09T22:35:57.332Z,83.86
2019-05-09T22:36:57.275Z,83.85
2019-05-09T22:37:57.320Z,83.82
2019-05-09T22:38:57.297Z,83.86
2019-05-09T22:39:57.316Z,83.87
2019-05-09T22:40:57.336Z,83.92
2019-05-09T22:41:57.310Z,83.90
2019-05-09T22:42:57.284Z,84.03
2019-05-09T22:43:57.269Z,84.02
2019-05-09T22:44:57.321Z,83.89
2019-05-09T22:45:57.295Z,83.99
2019-05-09T22:46:57.294Z,84.04
2019-05-09T22:47:57.315Z,84.09
2019-05-09T22:48:57.309Z,84.07
2019-05-09T22:49:57.306Z,84.23
2019-05-09T22:50:57.325Z,84.27
2019-05-09T22:51:57.297Z,84.20
2019-05-09T22:52:57.338Z,84.14
2019-05-09T22:54:11.738Z,84.32
2019-05-09T22:54:57.310Z,84.18
2019-05-09T22:55:57.283Z,84.18
2019-05-09T22:56:57.314Z,84.21
2019-05-09T22:57:57.309Z,84.15
2019-05-09T22:58:57.291Z,84.16
2019-05-09T22:59:57.355Z,84.22
2019-05-09T23:00:57.321Z,84.39
2019-05-09T23:01:57.293Z,84.31
2019-05-09T23:02:57.314Z,84.26
2019-05-09T23:03:57.314Z,84.31
2019-05-09T23:04:57.301Z,84.35
2019-05-09T23:05:57.330Z,84.31
2019-05-09T23:06:57.305Z,84.25
2019-05-09T23:07:57.290Z,84.26
2019-05-09T23:08:57.327Z,84.24
2019-05-09T23:09:57.314Z,84.26
2019-05-09T23:10:57.311Z,84.29
2019-05-09T23:11:57.334Z,84.35
2019-05-09T23:12:57.330Z,84.54
2019-05-09T23:13:57.342Z,84.42
2019-05-09T23:14:57.342Z,84.42
2019-05-09T23:15:57.313Z,84.42
2019-05-09T23:16:57.321Z,84.31
2019-05-09T23:17:57.339Z,84.41
2019-05-09T23:18:57.283Z,84.35
2019-05-09T23:19:57.323Z,84.44
2019-05-09T23:20:57.323Z,84.33
2019-05-09T23:21:57.324Z,84.46
2019-05-09T23:22:57.310Z,84.47
2019-05-09T23:23:57.329Z,84.46
2019-05-09T23:24:57.306Z,84.54
2019-05-09T23:25:57.314Z,84.42
2019-05-09T23:26:57.331Z,84.40
2019-05-09T23:27:57.339Z,84.48
2019-05-09T23:28:57.334Z,84.34
2019-05-09T23:29:57.324Z,84.40
2019-05-09T23:30:57.325Z,84.53
2019-05-09T23:31:57.373Z,84.49
2019-05-09T23:32:57.345Z,84.49
2019-05-09T23:33:57.323Z,84.56
2019-05-09T23:34:57.331Z,84.52
2019-05-09T23:35:57.346Z,84.54
2019-05-09T23:36:57.328Z,84.70
2019-05-09T23:37:57.312Z,84.54
2019-05-09T23:38:57.344Z,84.56
2019-05-09T23:39:57.351Z,84.42
2019-05-09T23:40:57.329Z,84.48
2019-05-09T23:41:57.336Z,84.63
2019-05-09T23:42:57.339Z,84.64
2019-05-09T23:43:57.311Z,84.59
2019-05-09T23:44:57.355Z,84.60
2019-05-09T23:45:57.357Z,84.64
2019-05-09T23:46:57.332Z,84.59
2019-05-09T23:47:57.349Z,84.71
2019-05-09T23:48:57.348Z,84.71
2019-05-09T23:49:57.318Z,84.67
2019-05-09T23:50:57.355Z,84.63
2019-05-09T23:51:57.341Z,84.59
2019-05-09T23:52:57.352Z,84.71
2019-05-09T23:53:57.349Z,84.79
2019-05-09T23:54:57.360Z,84.79
2019-05-09T23:55:57.387Z,84.64
2019-05-09T23:56:57.367Z,84.72
2019-05-09T23:57:57.337Z,84.72
2019-05-09T23:58:57.401Z,84.79
2019-05-09T23:59:57.379Z,84.75
